createdAt,value
2023-03-03T00:01:41.898Z,33.27
2023-03-03T00:04:09.846Z,33.50
2023-03-03T00:06:37.815Z,33.60
2023-03-03T00:09:07.120Z,36.23
2023-03-03T00:11:35.025Z,38.47
2023-03-03T00:14:02.943Z,36.40
2023-03-03T00:16:36.474Z,35.57
2023-03-03T00:19:04.938Z,33.10
2023-03-03T00:21:34.398Z,43.40
2023-03-03T00:24:24.537Z,37.73
2023-03-03T00:26:55.546Z,35.10
2023-03-03T00:29:36.202Z,33.23
2023-03-03T00:32:26.140Z,33.53
2023-03-03T00:34:56.193Z,33.63
2023-03-03T00:37:29.206Z,34.67
2023-03-03T00:40:15.013Z,34.17
2023-03-03T00:42:44.169Z,33.47
2023-03-03T00:45:25.600Z,34.30
2023-03-03T00:47:53.832Z,32.90
2023-03-03T00:50:33.415Z,34.73
2023-03-03T00:53:07.369Z,32.23
2023-03-03T00:55:37.212Z,32.30
2023-03-03T00:58:05.791Z,32.13
2023-03-03T01:00:38.754Z,33.37
2023-03-03T01:03:10.631Z,34.20
2023-03-03T01:05:38.704Z,33.13
2023-03-03T01:08:07.156Z,34.03
2023-03-03T01:10:40.354Z,31.50
2023-03-03T01:13:09.532Z,31.87
2023-03-03T01:15:38.822Z,34.50
2023-03-03T01:18:06.993Z,33.27
2023-03-03T01:20:35.055Z,34.60
2023-03-03T01:23:03.166Z,33.27
2023-03-03T01:25:31.284Z,34.03
2023-03-03T01:28:01.228Z,34.23
2023-03-03T01:30:29.655Z,34.23
2023-03-03T01:32:57.706Z,32.60
2023-03-03T01:35:25.760Z,31.50
2023-03-03T01:37:53.781Z,32.90
2023-03-03T01:40:24.768Z,35.07
2023-03-03T01:42:53.418Z,33.50
2023-03-03T01:45:25.567Z,33.00
2023-03-03T01:47:57.732Z,33.63
2023-03-03T01:50:37.057Z,35.40
2023-03-03T01:53:07.831Z,33.83
2023-03-03T01:55:40.707Z,34.80
2023-03-03T01:58:12.198Z,32.90
2023-03-03T02:00:45.992Z,33.67
2023-03-03T02:03:13.976Z,32.47
2023-03-03T02:05:44.319Z,34.73
2023-03-03T02:08:16.276Z,34.83
2023-03-03T02:10:46.012Z,33.90
2023-03-03T02:13:13.954Z,36.37
2023-03-03T02:15:43.732Z,33.73
2023-03-03T02:18:14.364Z,33.50
2023-03-03T02:20:58.463Z,33.27
2023-03-03T02:23:32.818Z,34.50
2023-03-03T02:26:08.085Z,32.63
2023-03-03T02:28:38.470Z,33.70
2023-03-03T02:31:13.379Z,33.60
2023-03-03T02:33:43.466Z,33.80
2023-03-03T02:36:14.955Z,34.27
2023-03-03T02:38:49.605Z,33.17
2023-03-03T02:41:28.045Z,34.83
2023-03-03T02:44:00.556Z,33.47
2023-03-03T02:46:30.016Z,36.13
2023-03-03T02:48:57.970Z,35.23
2023-03-03T02:51:26.047Z,34.90
2023-03-03T02:53:53.986Z,35.83
2023-03-03T02:56:23.447Z,35.37
2023-03-03T02:58:51.389Z,35.07
2023-03-03T03:01:20.333Z,34.03
2023-03-03T03:03:48.529Z,35.60
2023-03-03T03:06:20.533Z,35.67
2023-03-03T03:08:48.938Z,34.37
2023-03-03T03:11:17.194Z,34.63
2023-03-03T03:13:46.710Z,36.73
2023-03-03T03:16:14.642Z,34.93
2023-03-03T03:18:42.743Z,35.13
2023-03-03T03:21:12.835Z,35.27
2023-03-03T03:23:42.017Z,35.93
2023-03-03T03:26:10.804Z,35.87
2023-03-03T03:28:39.638Z,35.50
2023-03-03T03:31:10.639Z,38.10
2023-03-03T03:33:38.790Z,36.30
2023-03-03T03:36:08.819Z,37.30
2023-03-03T03:38:37.781Z,35.93
2023-03-03T03:41:08.931Z,35.27
2023-03-03T03:43:37.213Z,34.77
2023-03-03T03:46:05.797Z,36.83
2023-03-03T03:48:36.283Z,37.87
2023-03-03T03:51:06.675Z,36.70
2023-03-03T03:53:35.692Z,38.53
2023-03-03T03:56:03.667Z,38.43
2023-03-03T03:58:32.285Z,38.37
2023-03-03T04:01:05.908Z,37.97
2023-03-03T04:03:38.071Z,37.27
2023-03-03T04:06:11.438Z,38.47
2023-03-03T04:08:39.627Z,36.83
2023-03-03T04:11:09.480Z,37.17
2023-03-03T04:13:38.485Z,39.13
2023-03-03T04:16:08.652Z,38.33
2023-03-03T04:18:38.641Z,37.00
2023-03-03T04:21:07.444Z,37.33
2023-03-03T04:23:35.650Z,38.20
2023-03-03T04:26:04.041Z,36.73
2023-03-03T04:28:32.052Z,38.97
2023-03-03T04:31:00.935Z,38.33
2023-03-03T04:33:31.337Z,36.97
2023-03-03T04:36:01.553Z,37.63
2023-03-03T04:38:30.127Z,36.83
2023-03-03T04:40:58.424Z,37.40
2023-03-03T04:43:29.267Z,38.17
2023-03-03T04:45:58.218Z,37.13
2023-03-03T04:48:26.456Z,37.23
2023-03-03T04:50:55.034Z,38.30
2023-03-03T04:53:24.429Z,38.20
2023-03-03T04:55:54.057Z,38.53
2023-03-03T04:58:23.630Z,39.33
2023-03-03T05:00:56.253Z,37.83
2023-03-03T05:03:27.157Z,36.77
2023-03-03T05:05:55.148Z,38.97
2023-03-03T05:08:25.065Z,38.87
2023-03-03T05:10:54.157Z,38.40
2023-03-03T05:13:22.725Z,37.80
2023-03-03T05:15:52.255Z,36.03
2023-03-03T05:18:20.983Z,38.50
2023-03-03T05:20:49.085Z,38.13
2023-03-03T05:23:17.177Z,38.07
2023-03-03T05:25:47.979Z,38.30
2023-03-03T05:28:16.315Z,37.20
2023-03-03T05:30:44.400Z,38.17
2023-03-03T05:33:15.191Z,37.67
2023-03-03T05:35:43.488Z,36.93
2023-03-03T05:38:11.722Z,37.90
2023-03-03T05:40:39.886Z,35.90
2023-03-03T05:43:09.191Z,37.07
2023-03-03T05:45:37.127Z,36.63
2023-03-03T05:48:05.325Z,37.93
2023-03-03T05:50:33.603Z,37.10
2023-03-03T05:53:01.542Z,35.97
2023-03-03T05:55:29.604Z,36.33
2023-03-03T05:57:57.698Z,36.93
2023-03-03T06:00:27.334Z,37.03
2023-03-03T06:02:55.344Z,38.50
2023-03-03T06:05:23.483Z,35.57
2023-03-03T06:07:51.377Z,38.07
2023-03-03T06:10:19.574Z,38.43
2023-03-03T06:12:52.221Z,39.50
2023-03-03T06:15:20.309Z,40.27
2023-03-03T06:17:49.732Z,38.13
2023-03-03T06:20:17.913Z,40.13
2023-03-03T06:22:45.929Z,40.10
2023-03-03T06:25:13.996Z,40.03
2023-03-03T06:27:41.909Z,40.23
2023-03-03T06:30:11.269Z,39.37
2023-03-03T06:32:39.363Z,39.40
2023-03-03T06:35:09.438Z,40.17
2023-03-03T06:37:37.391Z,40.40
2023-03-03T06:40:07.111Z,38.37
2023-03-03T06:42:35.161Z,40.60
2023-03-03T06:45:03.089Z,38.47
2023-03-03T06:47:31.656Z,38.87
2023-03-03T06:49:59.596Z,38.40
2023-03-03T06:52:28.992Z,37.13
2023-03-03T06:54:59.615Z,39.87
2023-03-03T06:57:29.607Z,38.83
2023-03-03T07:00:01.673Z,37.57
2023-03-03T07:02:29.660Z,39.27
2023-03-03T07:04:58.010Z,37.97
2023-03-03T07:07:28.056Z,40.13
2023-03-03T07:09:57.526Z,39.93
2023-03-03T07:12:27.544Z,40.33
2023-03-03T07:15:01.517Z,38.47
2023-03-03T07:17:29.437Z,39.63
2023-03-03T07:19:57.378Z,40.33
2023-03-03T07:22:30.265Z,38.97
2023-03-03T07:25:01.961Z,40.27
2023-03-03T07:27:31.751Z,40.37
2023-03-03T07:30:18.744Z,41.83
2023-03-03T07:32:48.566Z,40.90
2023-03-03T07:35:38.872Z,40.17
2023-03-03T07:38:26.271Z,41.37
2023-03-03T07:40:56.209Z,38.60
2023-03-03T07:43:32.146Z,40.13
2023-03-03T07:46:05.883Z,39.33
2023-03-03T07:48:40.210Z,39.63
2023-03-03T07:51:15.656Z,40.10
2023-03-03T07:53:45.042Z,40.47
2023-03-03T07:56:28.660Z,41.23
2023-03-03T07:58:57.644Z,41.67
2023-03-03T08:01:42.627Z,39.43
2023-03-03T08:04:25.063Z,39.23
2023-03-03T08:06:55.533Z,40.97
2023-03-03T08:09:39.338Z,40.30
2023-03-03T08:12:31.457Z,39.33
2023-03-03T08:15:13.254Z,40.87
2023-03-03T08:17:43.704Z,43.43
2023-03-03T08:20:42.873Z,43.30
2023-03-03T08:23:10.807Z,44.40
2023-03-03T08:25:41.004Z,42.13
2023-03-03T08:28:09.204Z,40.87
2023-03-03T08:30:37.178Z,38.80
2023-03-03T08:33:05.453Z,39.40
2023-03-03T08:35:33.422Z,41.23
2023-03-03T08:38:01.468Z,41.40
2023-03-03T08:40:29.420Z,41.87
2023-03-03T08:42:59.236Z,40.90
2023-03-03T08:45:27.666Z,41.13
2023-03-03T08:47:55.667Z,42.00
2023-03-03T08:50:24.041Z,41.70
2023-03-03T08:52:52.027Z,42.23
2023-03-03T08:55:19.975Z,42.90
2023-03-03T08:57:48.287Z,43.93
2023-03-03T09:00:20.565Z,44.03
2023-03-03T09:02:49.321Z,41.70
2023-03-03T09:05:17.757Z,41.70
2023-03-03T09:07:47.933Z,42.73
2023-03-03T09:10:19.077Z,43.33
2023-03-03T09:12:49.405Z,41.33
2023-03-03T09:15:24.606Z,40.90
2023-03-03T09:17:53.115Z,41.23
2023-03-03T09:20:31.731Z,39.13
2023-03-03T09:23:00.195Z,38.97
2023-03-03T09:25:34.390Z,40.70
2023-03-03T09:28:03.240Z,41.30
2023-03-03T09:30:39.893Z,41.47
2023-03-03T09:33:33.436Z,41.70
2023-03-03T09:36:11.155Z,42.40
2023-03-03T09:38:45.810Z,42.10
2023-03-03T09:41:46.700Z,42.20
2023-03-03T09:44:33.224Z,39.83
2023-03-03T09:47:24.186Z,41.77
2023-03-03T09:50:02.936Z,40.40
2023-03-03T09:52:41.668Z,41.43
2023-03-03T09:55:25.596Z,42.07
2023-03-03T09:58:11.125Z,42.30
2023-03-03T10:00:52.528Z,42.03
2023-03-03T10:03:47.016Z,41.20
2023-03-03T10:06:23.185Z,40.17
2023-03-03T10:09:07.959Z,41.03
2023-03-03T10:11:43.057Z,41.73
2023-03-03T10:14:37.124Z,39.03
2023-03-03T10:17:22.797Z,38.93
2023-03-03T10:20:07.995Z,40.07
2023-03-03T10:22:44.342Z,37.57
2023-03-03T10:25:22.508Z,37.17
2023-03-03T10:28:05.770Z,40.30
2023-03-03T10:30:58.561Z,39.10
2023-03-03T10:33:39.074Z,39.63
2023-03-03T10:36:30.462Z,38.77
2023-03-03T10:39:19.388Z,37.73
2023-03-03T10:42:04.466Z,38.40
2023-03-03T10:44:47.204Z,40.10
2023-03-03T10:47:29.805Z,41.53
2023-03-03T10:50:08.803Z,41.23
2023-03-03T10:52:48.028Z,40.97
2023-03-03T10:55:29.604Z,42.47
2023-03-03T10:58:13.172Z,40.80
2023-03-03T11:00:46.492Z,43.43
2023-03-03T11:03:52.795Z,42.33
2023-03-03T11:06:26.173Z,42.80
2023-03-03T11:09:03.527Z,42.63
2023-03-03T11:11:41.561Z,42.17
2023-03-03T11:14:14.938Z,43.63
2023-03-03T11:16:51.881Z,45.17
2023-03-03T11:19:41.563Z,45.47
2023-03-03T11:22:22.546Z,43.43
2023-03-03T11:25:01.472Z,43.43
2023-03-03T11:28:08.343Z,42.83
2023-03-03T11:30:48.056Z,43.00
2023-03-03T11:33:21.867Z,44.07
2023-03-03T11:35:54.470Z,44.20
2023-03-03T11:38:35.652Z,45.40
2023-03-03T11:41:12.976Z,44.70
2023-03-03T11:43:46.749Z,44.47
2023-03-03T11:46:18.131Z,43.33
2023-03-03T11:48:55.146Z,45.63
2023-03-03T11:51:34.227Z,43.73
2023-03-03T11:54:06.735Z,43.97
2023-03-03T11:56:41.635Z,43.03
2023-03-03T11:59:30.214Z,43.60
2023-03-03T12:02:01.253Z,44.47
2023-03-03T12:04:35.664Z,43.63
2023-03-03T12:07:19.810Z,44.60
2023-03-03T12:09:57.974Z,42.80
2023-03-03T12:12:34.270Z,42.83
2023-03-03T12:15:20.659Z,43.93
2023-03-03T12:18:03.855Z,44.47
2023-03-03T12:20:38.938Z,44.40
2023-03-03T12:23:21.482Z,41.57
2023-03-03T12:25:56.038Z,43.47
2023-03-03T12:28:28.795Z,43.87
2023-03-03T12:31:08.625Z,44.10
2023-03-03T12:33:51.399Z,42.97
2023-03-03T12:36:33.992Z,42.40
2023-03-03T12:39:08.646Z,42.47
2023-03-03T12:41:44.333Z,42.87
2023-03-03T12:44:23.222Z,43.57
2023-03-03T12:47:01.820Z,44.80
2023-03-03T12:49:43.395Z,43.13
2023-03-03T12:52:24.321Z,43.17
2023-03-03T12:55:06.773Z,43.13
2023-03-03T12:57:44.189Z,43.97
2023-03-03T13:00:44.833Z,42.27
2023-03-03T13:03:30.363Z,44.30
2023-03-03T13:06:08.240Z,42.90
2023-03-03T13:08:52.928Z,43.40
2023-03-03T13:11:35.415Z,43.70
2023-03-03T13:14:14.844Z,43.00
2023-03-03T13:16:50.350Z,44.00
2023-03-03T13:19:23.061Z,42.67
2023-03-03T13:21:56.028Z,35.17
2023-03-03T13:24:30.218Z,42.57
2023-03-03T13:27:02.562Z,44.40
2023-03-03T13:29:36.445Z,41.73
2023-03-03T13:32:13.629Z,39.87
2023-03-03T13:34:52.741Z,40.20
2023-03-03T13:37:24.925Z,41.00
2023-03-03T13:39:59.723Z,41.03
2023-03-03T13:42:34.655Z,40.57
2023-03-03T13:45:07.974Z,41.40
2023-03-03T13:47:47.149Z,40.30
2023-03-03T13:50:25.163Z,40.73
2023-03-03T13:53:12.577Z,41.80
2023-03-03T13:55:44.829Z,40.53
2023-03-03T13:58:24.815Z,38.73
2023-03-03T14:00:58.664Z,39.03
2023-03-03T14:03:48.448Z,36.23
2023-03-03T14:06:19.037Z,39.33
2023-03-03T14:09:00.805Z,38.37
2023-03-03T14:11:36.583Z,40.00
2023-03-03T14:14:14.802Z,40.87
2023-03-03T14:16:51.588Z,43.27
2023-03-03T14:19:26.401Z,42.17
2023-03-03T14:22:07.071Z,41.33
2023-03-03T14:25:01.750Z,42.10
2023-03-03T14:27:36.231Z,40.73
2023-03-03T14:30:28.536Z,38.23
2023-03-03T14:33:30.911Z,39.73
2023-03-03T14:36:11.893Z,40.90
2023-03-03T14:38:44.461Z,39.77
2023-03-03T14:41:17.342Z,39.13
2023-03-03T14:43:47.368Z,39.00
2023-03-03T14:46:33.586Z,40.60
2023-03-03T14:49:03.673Z,39.00
2023-03-03T14:51:41.775Z,38.40
2023-03-03T14:54:17.588Z,40.27
2023-03-03T14:57:01.969Z,36.23
2023-03-03T14:59:30.232Z,40.63
2023-03-03T15:02:29.622Z,39.63
2023-03-03T15:05:17.503Z,36.90
2023-03-03T15:07:48.144Z,38.30
2023-03-03T15:10:32.537Z,38.60
2023-03-03T15:13:11.028Z,37.03
2023-03-03T15:15:52.909Z,37.67
2023-03-03T15:18:21.719Z,36.67
2023-03-03T15:20:57.396Z,38.93
2023-03-03T15:23:45.100Z,36.73
2023-03-03T15:26:20.342Z,36.47
2023-03-03T15:29:01.724Z,36.73
2023-03-03T15:31:38.716Z,36.60
2023-03-03T15:34:26.714Z,35.97
2023-03-03T15:37:03.433Z,36.47
2023-03-03T15:39:42.241Z,36.70
2023-03-03T15:42:15.406Z,36.43
2023-03-03T15:44:57.547Z,36.33
2023-03-03T15:47:46.196Z,38.13
2023-03-03T15:50:27.747Z,36.03
2023-03-03T15:53:09.189Z,35.83
2023-03-03T15:55:53.652Z,37.00
2023-03-03T15:58:52.091Z,38.17
2023-03-03T16:01:27.807Z,37.60
2023-03-03T16:03:59.063Z,36.33
2023-03-03T16:06:39.830Z,36.50
2023-03-03T16:09:19.556Z,37.07
2023-03-03T16:11:55.946Z,34.23
2023-03-03T16:15:01.958Z,36.17
2023-03-03T16:17:37.923Z,34.53
2023-03-03T16:20:16.671Z,38.27
2023-03-03T16:22:57.180Z,36.57
2023-03-03T16:25:43.824Z,37.03
2023-03-03T16:28:19.593Z,36.27
2023-03-03T16:30:53.779Z,32.73
2023-03-03T16:33:27.992Z,37.17
2023-03-03T16:36:04.643Z,34.77
2023-03-03T16:38:38.287Z,36.07
2023-03-03T16:41:10.274Z,36.27
2023-03-03T16:43:47.448Z,37.27
2023-03-03T16:46:26.609Z,38.43
2023-03-03T16:49:02.450Z,36.33
2023-03-03T16:51:42.646Z,37.67
2023-03-03T16:54:17.373Z,36.57
2023-03-03T16:56:52.832Z,36.40
2023-03-03T16:59:53.089Z,35.43
2023-03-03T17:02:49.498Z,35.57
2023-03-03T17:05:30.455Z,36.93
2023-03-03T17:08:20.112Z,35.97
2023-03-03T17:10:53.337Z,35.47
2023-03-03T17:13:46.908Z,35.87
2023-03-03T17:16:23.579Z,35.60
2023-03-03T17:19:05.540Z,36.80
2023-03-03T17:21:42.766Z,35.43
2023-03-03T17:24:19.492Z,39.03
2023-03-03T17:26:59.429Z,37.60
2023-03-03T17:29:59.547Z,36.50
2023-03-03T17:32:53.557Z,37.97
2023-03-03T17:35:57.240Z,37.20
2023-03-03T17:38:37.362Z,36.80
2023-03-03T17:41:10.420Z,37.87
2023-03-03T17:43:48.990Z,36.27
2023-03-03T17:46:22.350Z,38.10
2023-03-03T17:49:11.240Z,38.17
2023-03-03T17:51:55.236Z,36.03
2023-03-03T17:54:44.432Z,38.50
2023-03-03T17:57:26.873Z,37.57
2023-03-03T18:00:26.529Z,37.13
2023-03-03T18:03:35.394Z,37.80
2023-03-03T18:06:54.190Z,36.90
2023-03-03T18:09:37.942Z,38.93
2023-03-03T18:12:13.586Z,38.23
2023-03-03T18:15:07.968Z,40.37
2023-03-03T18:17:52.700Z,39.23
2023-03-03T18:20:34.105Z,38.70
2023-03-03T18:23:29.517Z,37.93
2023-03-03T18:26:00.157Z,40.07
2023-03-03T18:28:45.301Z,37.57
2023-03-03T18:31:24.338Z,40.07
2023-03-03T18:34:09.380Z,39.80
2023-03-03T18:36:40.375Z,38.70
2023-03-03T18:39:15.384Z,38.37
2023-03-03T18:42:10.410Z,37.67
2023-03-03T18:44:38.570Z,38.73
2023-03-03T18:47:06.751Z,39.90
2023-03-03T18:50:16.184Z,40.53
2023-03-03T18:53:14.530Z,40.60
2023-03-03T18:55:44.936Z,39.47
2023-03-03T18:58:42.212Z,40.60
2023-03-03T19:01:41.846Z,40.00
2023-03-03T19:04:25.183Z,40.00
2023-03-03T19:07:14.201Z,38.80
2023-03-03T19:09:56.812Z,41.07
2023-03-03T19:12:54.642Z,40.70
2023-03-03T19:15:57.224Z,41.37
2023-03-03T19:18:27.846Z,39.97
2023-03-03T19:21:01.676Z,41.63
2023-03-03T19:23:51.106Z,39.37
2023-03-03T19:26:42.056Z,38.70
2023-03-03T19:29:26.093Z,40.47
2023-03-03T19:32:06.438Z,39.57
2023-03-03T19:34:41.204Z,42.30
2023-03-03T19:37:23.390Z,39.50
2023-03-03T19:40:00.915Z,40.43
2023-03-03T19:42:47.430Z,40.93
2023-03-03T19:45:34.345Z,40.87
2023-03-03T19:48:08.470Z,41.27
2023-03-03T19:50:49.114Z,41.10
2023-03-03T19:53:26.734Z,41.83
2023-03-03T19:56:07.437Z,42.30
2023-03-03T19:58:45.031Z,41.20
2023-03-03T20:01:24.403Z,41.90
2023-03-03T20:04:17.548Z,41.73
2023-03-03T20:06:56.119Z,41.83
2023-03-03T20:09:42.725Z,41.53
2023-03-03T20:12:39.191Z,41.43
2023-03-03T20:15:15.929Z,41.20
2023-03-03T20:18:21.475Z,41.87
2023-03-03T20:21:01.732Z,43.90
2023-03-03T20:23:36.567Z,42.20
2023-03-03T20:26:13.783Z,42.43
2023-03-03T20:28:57.797Z,40.70
2023-03-03T20:31:33.848Z,44.67
2023-03-03T20:34:11.181Z,42.37
2023-03-03T20:36:50.587Z,42.27
2023-03-03T20:39:29.627Z,41.20
2023-03-03T20:42:09.374Z,43.27
2023-03-03T20:45:00.543Z,42.67
2023-03-03T20:47:39.633Z,42.87
2023-03-03T20:50:22.768Z,43.60
2023-03-03T20:53:07.677Z,43.03
2023-03-03T20:55:44.344Z,44.70
2023-03-03T20:58:20.232Z,44.23
2023-03-03T21:00:53.926Z,44.77
2023-03-03T21:03:29.780Z,43.93
2023-03-03T21:06:00.772Z,43.20
2023-03-03T21:08:44.903Z,44.20
2023-03-03T21:11:14.601Z,44.60
2023-03-03T21:13:44.299Z,44.50
2023-03-03T21:16:30.304Z,44.73
2023-03-03T21:18:59.064Z,45.40
2023-03-03T21:21:29.766Z,44.57
2023-03-03T21:23:59.649Z,45.43
2023-03-03T21:26:55.865Z,45.40
2023-03-03T21:29:26.684Z,41.93
2023-03-03T21:31:56.209Z,43.73
2023-03-03T21:34:30.228Z,41.20
2023-03-03T21:36:59.480Z,45.20
2023-03-03T21:39:30.921Z,47.60
2023-03-03T21:42:01.908Z,47.37
2023-03-03T21:44:32.320Z,47.90
2023-03-03T21:47:00.379Z,46.90
2023-03-03T21:49:28.715Z,47.83
2023-03-03T21:51:57.664Z,47.93
2023-03-03T21:54:25.809Z,46.63
2023-03-03T21:56:55.141Z,45.27
2023-03-03T21:59:23.064Z,47.17
2023-03-03T22:01:50.975Z,44.90
2023-03-03T22:04:19.076Z,45.80
2023-03-03T22:06:47.063Z,45.10
2023-03-03T22:09:15.382Z,45.80
2023-03-03T22:11:43.314Z,45.97
2023-03-03T22:14:12.853Z,47.07
2023-03-03T22:16:40.859Z,45.13
2023-03-03T22:19:10.227Z,40.30
2023-03-03T22:21:39.077Z,41.47
2023-03-03T22:24:07.844Z,44.07
2023-03-03T22:26:36.632Z,43.17
2023-03-03T22:29:05.000Z,42.70
2023-03-03T22:31:34.358Z,40.73
2023-03-03T22:34:02.332Z,43.90
2023-03-03T22:36:30.259Z,41.50
2023-03-03T22:38:58.176Z,41.57
2023-03-03T22:41:26.059Z,43.03
2023-03-03T22:43:54.002Z,39.73
2023-03-03T22:46:21.977Z,40.87
2023-03-03T22:48:51.479Z,41.43
2023-03-03T22:51:22.077Z,42.63
2023-03-03T22:53:50.218Z,43.60
2023-03-03T22:56:18.164Z,43.13
2023-03-03T22:58:46.110Z,43.67
2023-03-03T23:01:14.188Z,42.87
2023-03-03T23:03:42.169Z,42.90
2023-03-03T23:06:11.406Z,45.33
2023-03-03T23:08:39.400Z,43.53
2023-03-03T23:11:07.305Z,45.63
2023-03-03T23:13:35.357Z,42.33
2023-03-03T23:16:03.463Z,42.23
2023-03-03T23:18:31.478Z,40.80
2023-03-03T23:20:59.473Z,42.10
2023-03-03T23:23:29.694Z,41.63
2023-03-03T23:25:57.933Z,41.20
2023-03-03T23:28:25.885Z,40.30
2023-03-03T23:30:53.812Z,40.40
2023-03-03T23:33:21.857Z,43.77
2023-03-03T23:35:49.941Z,46.30
2023-03-03T23:38:17.966Z,45.60
2023-03-03T23:40:47.707Z,44.60
2023-03-03T23:43:15.704Z,39.50
2023-03-03T23:45:43.758Z,40.83
2023-03-03T23:48:11.916Z,39.43
2023-03-03T23:50:40.032Z,41.87
2023-03-03T23:53:08.928Z,40.50
2023-03-03T23:55:37.717Z,42.40
2023-03-03T23:58:07.241Z,42.83
